sensor_id;sensor_type;location;lat;lon;timestamp;pressure;altitude;pressure_sealevel;temperature;humidity
70971;BME280;58632;51.718;19.446;2024-01-25T00:00:55;98814.19;;;5.61;100.00
70971;BME280;58632;51.718;19.446;2024-01-25T00:03:38;98818.96;;;5.61;100.00
70971;BME280;58632;51.718;19.446;2024-01-25T00:06:04;98819.07;;;5.59;100.00
70971;BME280;58632;51.718;19.446;2024-01-25T00:08:30;98817.60;;;5.57;100.00
70971;BME280;58632;51.718;19.446;2024-01-25T00:10:56;98825.36;;;5.58;100.00
70971;BME280;58632;51.718;19.446;2024-01-25T00:13:21;98824.15;;;5.60;100.00
70971;BME280;58632;51.718;19.446;2024-01-25T00:15:47;98831.05;;;5.60;100.00
70971;BME280;58632;51.718;19.446;2024-01-25T00:18:12;98827.62;;;5.61;100.00
70971;BME280;58632;51.718;19.446;2024-01-25T00:20:38;98831.63;;;5.59;100.00
70971;BME280;58632;51.718;19.446;2024-01-25T00:23:06;98832.75;;;5.58;100.00
70971;BME280;58632;51.718;19.446;2024-01-25T00:25:32;98827.81;;;5.62;100.00
70971;BME280;58632;51.718;19.446;2024-01-25T00:27:57;98839.94;;;5.59;100.00
70971;BME280;58632;51.718;19.446;2024-01-25T00:30:23;98840.45;;;5.58;100.00
70971;BME280;58632;51.718;19.446;2024-01-25T00:32:48;98844.34;;;5.57;100.00
70971;BME280;58632;51.718;19.446;2024-01-25T00:35:14;98845.42;;;5.57;100.00
70971;BME280;58632;51.718;19.446;2024-01-25T00:37:40;98843.25;;;5.57;100.00
70971;BME280;58632;51.718;19.446;2024-01-25T00:40:06;98844.81;;;5.55;100.00
70971;BME280;58632;51.718;19.446;2024-01-25T00:42:31;98846.08;;;5.52;100.00
70971;BME280;58632;51.718;19.446;2024-01-25T00:45:01;98851.52;;;5.50;100.00
70971;BME280;58632;51.718;19.446;2024-01-25T00:47:27;98849.88;;;5.48;100.00
70971;BME280;58632;51.718;19.446;2024-01-25T00:49:52;98856.29;;;5.48;100.00
70971;BME280;58632;51.718;19.446;2024-01-25T00:52:18;98865.45;;;5.49;100.00
70971;BME280;58632;51.718;19.446;2024-01-25T00:54:44;98873.56;;;5.50;100.00
70971;BME280;58632;51.718;19.446;2024-01-25T00:57:10;98873.93;;;5.52;100.00
70971;BME280;58632;51.718;19.446;2024-01-25T00:59:35;98876.27;;;5.53;100.00
70971;BME280;58632;51.718;19.446;2024-01-25T01:02:01;98879.01;;;5.50;100.00
70971;BME280;58632;51.718;19.446;2024-01-25T01:04:27;98884.52;;;5.53;100.00
70971;BME280;58632;51.718;19.446;2024-01-25T01:06:52;98878.43;;;5.56;100.00
70971;BME280;58632;51.718;19.446;2024-01-25T01:09:18;98878.38;;;5.53;100.00
70971;BME280;58632;51.718;19.446;2024-01-25T01:11:43;98882.10;;;5.50;100.00
70971;BME280;58632;51.718;19.446;2024-01-25T01:14:08;98867.27;;;5.45;100.00
70971;BME280;58632;51.718;19.446;2024-01-25T01:16:34;98874.81;;;5.46;100.00
70971;BME280;58632;51.718;19.446;2024-01-25T01:19:01;98881.08;;;5.49;100.00
70971;BME280;58632;51.718;19.446;2024-01-25T01:21:31;98879.27;;;5.52;100.00
70971;BME280;58632;51.718;19.446;2024-01-25T01:23:56;98877.50;;;5.49;100.00
70971;BME280;58632;51.718;19.446;2024-01-25T01:26:21;98880.59;;;5.43;100.00
70971;BME280;58632;51.718;19.446;2024-01-25T01:28:47;98872.98;;;5.39;100.00
70971;BME280;58632;51.718;19.446;2024-01-25T01:31:12;98878.39;;;5.35;100.00
70971;BME280;58632;51.718;19.446;2024-01-25T01:33:38;98871.66;;;5.33;100.00
70971;BME280;58632;51.718;19.446;2024-01-25T01:36:03;98876.09;;;5.34;100.00
70971;BME280;58632;51.718;19.446;2024-01-25T01:38:29;98868.17;;;5.36;100.00
70971;BME280;58632;51.718;19.446;2024-01-25T01:40:54;98857.84;;;5.32;100.00
70971;BME280;58632;51.718;19.446;2024-01-25T01:43:20;98856.79;;;5.28;100.00
70971;BME280;58632;51.718;19.446;2024-01-25T01:45:45;98861.69;;;5.25;100.00
70971;BME280;58632;51.718;19.446;2024-01-25T01:48:11;98859.66;;;5.26;100.00
70971;BME280;58632;51.718;19.446;2024-01-25T01:50:36;98862.01;;;5.26;100.00
70971;BME280;58632;51.718;19.446;2024-01-25T01:53:02;98865.08;;;5.26;100.00
70971;BME280;58632;51.718;19.446;2024-01-25T01:55:28;98859.83;;;5.24;100.00
70971;BME280;58632;51.718;19.446;2024-01-25T01:57:54;98863.30;;;5.24;100.00
70971;BME280;58632;51.718;19.446;2024-01-25T02:00:20;98863.30;;;5.26;100.00
70971;BME280;58632;51.718;19.446;2024-01-25T02:02:46;98862.58;;;5.29;100.00
70971;BME280;58632;51.718;19.446;2024-01-25T02:05:11;98860.05;;;5.30;100.00
70971;BME280;58632;51.718;19.446;2024-01-25T02:07:37;98861.91;;;5.27;100.00
70971;BME280;58632;51.718;19.446;2024-01-25T02:10:03;98866.33;;;5.22;100.00
70971;BME280;58632;51.718;19.446;2024-01-25T02:12:31;98868.82;;;5.21;100.00
70971;BME280;58632;51.718;19.446;2024-01-25T02:14:58;98867.73;;;5.20;100.00
70971;BME280;58632;51.718;19.446;2024-01-25T02:17:26;98871.17;;;5.24;100.00
70971;BME280;58632;51.718;19.446;2024-01-25T02:19:52;98870.52;;;5.24;100.00
70971;BME280;58632;51.718;19.446;2024-01-25T02:22:18;98870.95;;;5.22;100.00
70971;BME280;58632;51.718;19.446;2024-01-25T02:24:44;98867.11;;;5.21;100.00
70971;BME280;58632;51.718;19.446;2024-01-25T02:27:09;98868.98;;;5.18;100.00
70971;BME280;58632;51.718;19.446;2024-01-25T02:29:34;98867.25;;;5.16;100.00
70971;BME280;58632;51.718;19.446;2024-01-25T02:32:00;98866.73;;;5.19;100.00
70971;BME280;58632;51.718;19.446;2024-01-25T02:34:25;98864.46;;;5.19;100.00
70971;BME280;58632;51.718;19.446;2024-01-25T02:36:50;98865.17;;;5.21;100.00
70971;BME280;58632;51.718;19.446;2024-01-25T02:39:16;98867.02;;;5.19;100.00
70971;BME280;58632;51.718;19.446;2024-01-25T02:41:42;98866.09;;;5.16;100.00
70971;BME280;58632;51.718;19.446;2024-01-25T02:44:07;98865.09;;;5.15;100.00
70971;BME280;58632;51.718;19.446;2024-01-25T02:46:33;98864.52;;;5.16;100.00
70971;BME280;58632;51.718;19.446;2024-01-25T02:48:58;98864.84;;;5.16;100.00
70971;BME280;58632;51.718;19.446;2024-01-25T02:51:24;98868.08;;;5.17;100.00
70971;BME280;58632;51.718;19.446;2024-01-25T02:53:51;98872.85;;;5.15;100.00
70971;BME280;58632;51.718;19.446;2024-01-25T02:56:16;98875.20;;;5.12;100.00
70971;BME280;58632;51.718;19.446;2024-01-25T02:58:42;98867.88;;;5.10;100.00
70971;BME280;58632;51.718;19.446;2024-01-25T03:01:07;98871.78;;;5.07;100.00
70971;BME280;58632;51.718;19.446;2024-01-25T03:03:33;98870.20;;;5.07;100.00
70971;BME280;58632;51.718;19.446;2024-01-25T03:05:58;98863.07;;;5.07;100.00
70971;BME280;58632;51.718;19.446;2024-01-25T03:08:24;98863.23;;;5.06;100.00
70971;BME280;58632;51.718;19.446;2024-01-25T03:10:49;98859.90;;;5.04;100.00
70971;BME280;58632;51.718;19.446;2024-01-25T03:13:15;98854.36;;;5.03;100.00
70971;BME280;58632;51.718;19.446;2024-01-25T03:15:42;98859.02;;;5.01;100.00
70971;BME280;58632;51.718;19.446;2024-01-25T03:18:07;98852.16;;;5.01;100.00
70971;BME280;58632;51.718;19.446;2024-01-25T03:20:33;98857.40;;;5.01;100.00
70971;BME280;58632;51.718;19.446;2024-01-25T03:22:58;98857.44;;;5.01;100.00
70971;BME280;58632;51.718;19.446;2024-01-25T03:25:23;98852.27;;;4.99;100.00
70971;BME280;58632;51.718;19.446;2024-01-25T03:27:49;98864.26;;;4.97;100.00
70971;BME280;58632;51.718;19.446;2024-01-25T03:30:16;98866.95;;;4.98;100.00
70971;BME280;58632;51.718;19.446;2024-01-25T03:32:42;98865.88;;;5.00;100.00
70971;BME280;58632;51.718;19.446;2024-01-25T03:35:07;98860.27;;;5.01;100.00
70971;BME280;58632;51.718;19.446;2024-01-25T03:37:33;98869.16;;;4.96;100.00
70971;BME280;58632;51.718;19.446;2024-01-25T03:39:58;98873.61;;;4.92;100.00
70971;BME280;58632;51.718;19.446;2024-01-25T03:42:24;98861.38;;;4.91;100.00
70971;BME280;58632;51.718;19.446;2024-01-25T03:44:49;98871.23;;;4.87;100.00
70971;BME280;58632;51.718;19.446;2024-01-25T03:47:14;98865.20;;;4.86;100.00
70971;BME280;58632;51.718;19.446;2024-01-25T03:49:40;98866.09;;;4.88;100.00
70971;BME280;58632;51.718;19.446;2024-01-25T03:52:05;98861.23;;;4.85;100.00
70971;BME280;58632;51.718;19.446;2024-01-25T03:54:31;98864.20;;;4.81;100.00
70971;BME280;58632;51.718;19.446;2024-01-25T03:56:56;98862.39;;;4.79;100.00
70971;BME280;58632;51.718;19.446;2024-01-25T03:59:24;98868.27;;;4.82;100.00
70971;BME280;58632;51.718;19.446;2024-01-25T04:01:49;98861.95;;;4.84;100.00
70971;BME280;58632;51.718;19.446;2024-01-25T04:04:14;98862.20;;;4.85;100.00
70971;BME280;58632;51.718;19.446;2024-01-25T04:06:40;98860.97;;;4.85;100.00
70971;BME280;58632;51.718;19.446;2024-01-25T04:09:07;98864.32;;;4.83;100.00
70971;BME280;58632;51.718;19.446;2024-01-25T04:11:32;98866.69;;;4.81;100.00
70971;BME280;58632;51.718;19.446;2024-01-25T04:13:58;98868.34;;;4.85;100.00
70971;BME280;58632;51.718;19.446;2024-01-25T04:16:24;98868.32;;;4.86;100.00
70971;BME280;58632;51.718;19.446;2024-01-25T04:18:49;98868.54;;;4.88;100.00
70971;BME280;58632;51.718;19.446;2024-01-25T04:21:15;98867.90;;;4.90;100.00
70971;BME280;58632;51.718;19.446;2024-01-25T04:23:40;98865.21;;;4.92;100.00
70971;BME280;58632;51.718;19.446;2024-01-25T04:26:05;98868.23;;;4.90;100.00
70971;BME280;58632;51.718;19.446;2024-01-25T04:28:31;98866.56;;;4.89;100.00
70971;BME280;58632;51.718;19.446;2024-01-25T04:30:57;98870.03;;;4.92;100.00
70971;BME280;58632;51.718;19.446;2024-01-25T04:33:22;98874.23;;;4.95;100.00
70971;BME280;58632;51.718;19.446;2024-01-25T04:35:48;98872.52;;;4.95;100.00
70971;BME280;58632;51.718;19.446;2024-01-25T04:38:13;98868.05;;;4.94;100.00
70971;BME280;58632;51.718;19.446;2024-01-25T04:40:38;98869.09;;;4.92;100.00
70971;BME280;58632;51.718;19.446;2024-01-25T04:43:04;98864.89;;;4.92;100.00
70971;BME280;58632;51.718;19.446;2024-01-25T04:45:29;98872.21;;;4.91;100.00
70971;BME280;58632;51.718;19.446;2024-01-25T04:47:55;98872.61;;;4.93;100.00
70971;BME280;58632;51.718;19.446;2024-01-25T04:50:20;98872.24;;;4.93;100.00
70971;BME280;58632;51.718;19.446;2024-01-25T04:52:46;98875.78;;;4.91;100.00
70971;BME280;58632;51.718;19.446;2024-01-25T04:55:11;98868.95;;;4.91;100.00
70971;BME280;58632;51.718;19.446;2024-01-25T04:57:37;98869.93;;;4.92;100.00
70971;BME280;58632;51.718;19.446;2024-01-25T05:00:05;98868.80;;;4.91;100.00
70971;BME280;58632;51.718;19.446;2024-01-25T05:02:31;98874.05;;;4.92;100.00
70971;BME280;58632;51.718;19.446;2024-01-25T05:04:56;98866.80;;;4.93;100.00
70971;BME280;58632;51.718;19.446;2024-01-25T05:07:21;98877.31;;;4.91;100.00
70971;BME280;58632;51.718;19.446;2024-01-25T05:09:47;98876.44;;;4.92;100.00
70971;BME280;58632;51.718;19.446;2024-01-25T05:12:12;98880.90;;;4.94;100.00
70971;BME280;58632;51.718;19.446;2024-01-25T05:14:38;98881.64;;;4.96;100.00
70971;BME280;58632;51.718;19.446;2024-01-25T05:17:03;98880.67;;;4.97;100.00
70971;BME280;58632;51.718;19.446;2024-01-25T05:19:28;98877.49;;;4.95;100.00
70971;BME280;58632;51.718;19.446;2024-01-25T05:21:54;98881.16;;;4.91;100.00
70971;BME280;58632;51.718;19.446;2024-01-25T05:24:19;98879.80;;;4.92;100.00
70971;BME280;58632;51.718;19.446;2024-01-25T05:26:45;98893.26;;;4.92;100.00
70971;BME280;58632;51.718;19.446;2024-01-25T05:29:10;98890.81;;;4.89;100.00
70971;BME280;58632;51.718;19.446;2024-01-25T05:31:35;98888.66;;;4.86;100.00
70971;BME280;58632;51.718;19.446;2024-01-25T05:34:01;98894.23;;;4.82;100.00
70971;BME280;58632;51.718;19.446;2024-01-25T05:36:26;98903.77;;;4.77;100.00
70971;BME280;58632;51.718;19.446;2024-01-25T05:38:51;98908.69;;;4.73;100.00
70971;BME280;58632;51.718;19.446;2024-01-25T05:41:17;98917.18;;;4.70;100.00
70971;BME280;58632;51.718;19.446;2024-01-25T05:43:42;98914.77;;;4.68;100.00
70971;BME280;58632;51.718;19.446;2024-01-25T05:46:07;98913.73;;;4.63;100.00
70971;BME280;58632;51.718;19.446;2024-01-25T05:48:34;98919.41;;;4.56;100.00
70971;BME280;58632;51.718;19.446;2024-01-25T05:51:00;98922.02;;;4.50;100.00
70971;BME280;58632;51.718;19.446;2024-01-25T05:53:25;98932.38;;;4.50;100.00
70971;BME280;58632;51.718;19.446;2024-01-25T05:55:51;98933.52;;;4.48;100.00
70971;BME280;58632;51.718;19.446;2024-01-25T05:58:16;98935.09;;;4.43;100.00
70971;BME280;58632;51.718;19.446;2024-01-25T06:00:42;98934.98;;;4.40;100.00
70971;BME280;58632;51.718;19.446;2024-01-25T06:03:07;98933.06;;;4.38;100.00
70971;BME280;58632;51.718;19.446;2024-01-25T06:05:33;98940.96;;;4.33;100.00
70971;BME280;58632;51.718;19.446;2024-01-25T06:07:58;98945.75;;;4.32;100.00
70971;BME280;58632;51.718;19.446;2024-01-25T06:10:24;98941.35;;;4.30;100.00
70971;BME280;58632;51.718;19.446;2024-01-25T06:12:49;98943.09;;;4.30;100.00
70971;BME280;58632;51.718;19.446;2024-01-25T06:15:15;98941.05;;;4.29;100.00
70971;BME280;58632;51.718;19.446;2024-01-25T06:17:40;98937.25;;;4.29;100.00
70971;BME280;58632;51.718;19.446;2024-01-25T06:20:05;98943.92;;;4.32;100.00
70971;BME280;58632;51.718;19.446;2024-01-25T06:22:33;98949.98;;;4.35;100.00
70971;BME280;58632;51.718;19.446;2024-01-25T06:24:59;98942.09;;;4.37;100.00
70971;BME280;58632;51.718;19.446;2024-01-25T06:27:24;98945.77;;;4.34;100.00
70971;BME280;58632;51.718;19.446;2024-01-25T06:29:51;98947.24;;;4.33;100.00
70971;BME280;58632;51.718;19.446;2024-01-25T06:32:17;98947.27;;;4.32;100.00
70971;BME280;58632;51.718;19.446;2024-01-25T06:34:42;98953.25;;;4.31;100.00
70971;BME280;58632;51.718;19.446;2024-01-25T06:37:08;98947.44;;;4.33;100.00
70971;BME280;58632;51.718;19.446;2024-01-25T06:39:33;98955.71;;;4.30;100.00
70971;BME280;58632;51.718;19.446;2024-01-25T06:41:59;98949.49;;;4.29;100.00
70971;BME280;58632;51.718;19.446;2024-01-25T06:44:25;98956.56;;;4.28;100.00
70971;BME280;58632;51.718;19.446;2024-01-25T06:46:50;98954.52;;;4.23;100.00
70971;BME280;58632;51.718;19.446;2024-01-25T06:49:15;98958.39;;;4.23;100.00
70971;BME280;58632;51.718;19.446;2024-01-25T06:51:41;98960.78;;;4.23;100.00
70971;BME280;58632;51.718;19.446;2024-01-25T06:54:06;98969.39;;;4.23;100.00
70971;BME280;58632;51.718;19.446;2024-01-25T06:56:32;98975.06;;;4.24;100.00
70971;BME280;58632;51.718;19.446;2024-01-25T06:58:58;98974.19;;;4.28;100.00
70971;BME280;58632;51.718;19.446;2024-01-25T07:01:26;98972.58;;;4.30;100.00
70971;BME280;58632;51.718;19.446;2024-01-25T07:03:53;98972.20;;;4.30;100.00
70971;BME280;58632;51.718;19.446;2024-01-25T07:06:18;98972.98;;;4.31;100.00
70971;BME280;58632;51.718;19.446;2024-01-25T07:08:44;98975.98;;;4.33;100.00
70971;BME280;58632;51.718;19.446;2024-01-25T07:11:12;98977.16;;;4.34;100.00
70971;BME280;58632;51.718;19.446;2024-01-25T07:13:38;98977.17;;;4.37;100.00
70971;BME280;58632;51.718;19.446;2024-01-25T07:16:03;98979.42;;;4.40;100.00
70971;BME280;58632;51.718;19.446;2024-01-25T07:18:29;98982.90;;;4.46;100.00
70971;BME280;58632;51.718;19.446;2024-01-25T07:20:54;98987.61;;;4.49;100.00
70971;BME280;58632;51.718;19.446;2024-01-25T07:23:20;98990.13;;;4.51;100.00
70971;BME280;58632;51.718;19.446;2024-01-25T07:25:46;98985.11;;;4.52;100.00
70971;BME280;58632;51.718;19.446;2024-01-25T07:28:11;98983.98;;;4.51;100.00
70971;BME280;58632;51.718;19.446;2024-01-25T07:30:37;98990.52;;;4.52;100.00
70971;BME280;58632;51.718;19.446;2024-01-25T07:33:02;98982.30;;;4.54;100.00
70971;BME280;58632;51.718;19.446;2024-01-25T07:35:28;98987.52;;;4.55;100.00
70971;BME280;58632;51.718;19.446;2024-01-25T07:37:53;98991.88;;;4.58;100.00
70971;BME280;58632;51.718;19.446;2024-01-25T07:40:19;98984.15;;;4.56;100.00
70971;BME280;58632;51.718;19.446;2024-01-25T07:42:45;98988.52;;;4.58;100.00
70971;BME280;58632;51.718;19.446;2024-01-25T07:45:12;98987.20;;;4.56;100.00
70971;BME280;58632;51.718;19.446;2024-01-25T07:47:40;98990.23;;;4.56;100.00
70971;BME280;58632;51.718;19.446;2024-01-25T07:50:06;98988.21;;;4.59;100.00
70971;BME280;58632;51.718;19.446;2024-01-25T07:52:31;98997.11;;;4.59;100.00
70971;BME280;58632;51.718;19.446;2024-01-25T07:54:57;98999.35;;;4.59;100.00
70971;BME280;58632;51.718;19.446;2024-01-25T07:57:24;99006.27;;;4.59;100.00
70971;BME280;58632;51.718;19.446;2024-01-25T07:59:50;99004.68;;;4.63;100.00
70971;BME280;58632;51.718;19.446;2024-01-25T08:02:15;99008.41;;;4.70;100.00
70971;BME280;58632;51.718;19.446;2024-01-25T08:04:42;99011.06;;;4.75;100.00
70971;BME280;58632;51.718;19.446;2024-01-25T08:07:07;99011.03;;;4.74;100.00
70971;BME280;58632;51.718;19.446;2024-01-25T08:09:33;99011.40;;;4.72;100.00
70971;BME280;58632;51.718;19.446;2024-01-25T08:11:59;99010.29;;;4.76;100.00
70971;BME280;58632;51.718;19.446;2024-01-25T08:14:25;99006.13;;;4.78;100.00
70971;BME280;58632;51.718;19.446;2024-01-25T08:16:50;99015.58;;;4.77;100.00
70971;BME280;58632;51.718;19.446;2024-01-25T08:19:16;99016.89;;;4.76;100.00
70971;BME280;58632;51.718;19.446;2024-01-25T08:21:41;99011.42;;;4.76;100.00
70971;BME280;58632;51.718;19.446;2024-01-25T08:24:11;99022.90;;;4.77;100.00
70971;BME280;58632;51.718;19.446;2024-01-25T08:26:38;99025.58;;;4.79;100.00
70971;BME280;58632;51.718;19.446;2024-01-25T08:29:03;99023.27;;;4.80;100.00
70971;BME280;58632;51.718;19.446;2024-01-25T08:31:28;99027.87;;;4.84;100.00
70971;BME280;58632;51.718;19.446;2024-01-25T08:33:54;99034.85;;;4.85;100.00
70971;BME280;58632;51.718;19.446;2024-01-25T08:36:22;99038.88;;;4.87;100.00
70971;BME280;58632;51.718;19.446;2024-01-25T08:38:48;99041.17;;;4.88;100.00
70971;BME280;58632;51.718;19.446;2024-01-25T08:41:13;99045.50;;;4.86;100.00
70971;BME280;58632;51.718;19.446;2024-01-25T08:43:40;99048.04;;;4.87;100.00
70971;BME280;58632;51.718;19.446;2024-01-25T08:46:06;99058.63;;;4.84;100.00
70971;BME280;58632;51.718;19.446;2024-01-25T08:48:31;99066.77;;;4.83;100.00
70971;BME280;58632;51.718;19.446;2024-01-25T08:50:56;99066.92;;;4.86;100.00
70971;BME280;58632;51.718;19.446;2024-01-25T08:53:22;99070.42;;;4.91;100.00
70971;BME280;58632;51.718;19.446;2024-01-25T08:55:52;99070.51;;;4.98;100.00
70971;BME280;58632;51.718;19.446;2024-01-25T08:58:17;99075.98;;;5.04;100.00
70971;BME280;58632;51.718;19.446;2024-01-25T09:00:43;99076.97;;;5.05;100.00
70971;BME280;58632;51.718;19.446;2024-01-25T09:03:08;99083.54;;;5.08;100.00
70971;BME280;58632;51.718;19.446;2024-01-25T09:05:34;99089.41;;;5.10;100.00
70971;BME280;58632;51.718;19.446;2024-01-25T09:08:05;99095.30;;;5.12;100.00
70971;BME280;58632;51.718;19.446;2024-01-25T09:10:31;99096.85;;;5.13;100.00
70971;BME280;58632;51.718;19.446;2024-01-25T09:12:57;99098.46;;;5.11;100.00
70971;BME280;58632;51.718;19.446;2024-01-25T09:15:22;99097.61;;;5.07;100.00
70971;BME280;58632;51.718;19.446;2024-01-25T09:17:47;99099.71;;;5.08;100.00
70971;BME280;58632;51.718;19.446;2024-01-25T09:20:13;99108.52;;;5.11;100.00
70971;BME280;58632;51.718;19.446;2024-01-25T09:22:38;99105.84;;;5.14;100.00
70971;BME280;58632;51.718;19.446;2024-01-25T09:25:04;99104.09;;;5.15;100.00
70971;BME280;58632;51.718;19.446;2024-01-25T09:27:30;99114.56;;;5.15;100.00
70971;BME280;58632;51.718;19.446;2024-01-25T09:29:55;99109.26;;;5.20;100.00
70971;BME280;58632;51.718;19.446;2024-01-25T09:32:20;99109.27;;;5.24;100.00
70971;BME280;58632;51.718;19.446;2024-01-25T09:34:46;99128.23;;;5.29;100.00
70971;BME280;58632;51.718;19.446;2024-01-25T09:37:11;99130.80;;;5.34;100.00
70971;BME280;58632;51.718;19.446;2024-01-25T09:39:37;99133.58;;;5.36;100.00
70971;BME280;58632;51.718;19.446;2024-01-25T09:42:05;99135.09;;;5.41;100.00
70971;BME280;58632;51.718;19.446;2024-01-25T09:44:31;99137.99;;;5.43;100.00
70971;BME280;58632;51.718;19.446;2024-01-25T09:46:56;99131.11;;;5.50;100.00
70971;BME280;58632;51.718;19.446;2024-01-25T09:49:22;99130.86;;;5.59;100.00
70971;BME280;58632;51.718;19.446;2024-01-25T09:51:48;99128.65;;;5.61;100.00
70971;BME280;58632;51.718;19.446;2024-01-25T09:54:16;99135.11;;;5.56;100.00
70971;BME280;58632;51.718;19.446;2024-01-25T09:56:44;99141.44;;;5.55;100.00
70971;BME280;58632;51.718;19.446;2024-01-25T09:59:09;99142.88;;;5.56;100.00
70971;BME280;58632;51.718;19.446;2024-01-25T10:01:34;99137.91;;;5.57;100.00
70971;BME280;58632;51.718;19.446;2024-01-25T10:04:00;99141.89;;;5.56;100.00
70971;BME280;58632;51.718;19.446;2024-01-25T10:06:25;99142.14;;;5.52;100.00
70971;BME280;58632;51.718;19.446;2024-01-25T10:08:51;99143.77;;;5.52;100.00
70971;BME280;58632;51.718;19.446;2024-01-25T10:11:17;99144.85;;;5.61;100.00
70971;BME280;58632;51.718;19.446;2024-01-25T10:13:42;99147.70;;;5.66;100.00
70971;BME280;58632;51.718;19.446;2024-01-25T10:16:11;99145.86;;;5.71;100.00
70971;BME280;58632;51.718;19.446;2024-01-25T10:18:40;99146.90;;;5.74;100.00
70971;BME280;58632;51.718;19.446;2024-01-25T10:21:06;99152.30;;;5.68;100.00
70971;BME280;58632;51.718;19.446;2024-01-25T10:23:33;99155.88;;;5.65;100.00
70971;BME280;58632;51.718;19.446;2024-01-25T10:25:59;99159.53;;;5.65;100.00
70971;BME280;58632;51.718;19.446;2024-01-25T10:28:24;99162.46;;;5.62;100.00
70971;BME280;58632;51.718;19.446;2024-01-25T10:30:55;99162.91;;;5.56;100.00
70971;BME280;58632;51.718;19.446;2024-01-25T10:33:21;99166.20;;;5.52;100.00
70971;BME280;58632;51.718;19.446;2024-01-25T10:35:47;99171.29;;;5.47;100.00
70971;BME280;58632;51.718;19.446;2024-01-25T10:38:16;99170.59;;;5.44;100.00
70971;BME280;58632;51.718;19.446;2024-01-25T10:40:42;99175.70;;;5.45;100.00
70971;BME280;58632;51.718;19.446;2024-01-25T10:43:08;99172.42;;;5.45;100.00
70971;BME280;58632;51.718;19.446;2024-01-25T10:45:34;99179.06;;;5.47;100.00
70971;BME280;58632;51.718;19.446;2024-01-25T10:47:59;99178.71;;;5.46;100.00
70971;BME280;58632;51.718;19.446;2024-01-25T10:50:25;99183.77;;;5.43;100.00
70971;BME280;58632;51.718;19.446;2024-01-25T10:52:51;99191.65;;;5.42;100.00
70971;BME280;58632;51.718;19.446;2024-01-25T10:55:17;99188.13;;;5.42;100.00
70971;BME280;58632;51.718;19.446;2024-01-25T10:57:43;99189.80;;;5.37;100.00
70971;BME280;58632;51.718;19.446;2024-01-25T11:00:09;99199.15;;;5.31;100.00
70971;BME280;58632;51.718;19.446;2024-01-25T11:02:35;99208.74;;;5.32;100.00
70971;BME280;58632;51.718;19.446;2024-01-25T11:05:01;99195.64;;;5.33;100.00
70971;BME280;58632;51.718;19.446;2024-01-25T11:07:28;99209.65;;;5.33;100.00
70971;BME280;58632;51.718;19.446;2024-01-25T11:09:54;99205.58;;;5.36;100.00
70971;BME280;58632;51.718;19.446;2024-01-25T11:12:20;99206.41;;;5.35;100.00
70971;BME280;58632;51.718;19.446;2024-01-25T11:14:45;99207.16;;;5.33;100.00
70971;BME280;58632;51.718;19.446;2024-01-25T11:17:29;99213.08;;;5.33;100.00
70971;BME280;58632;51.718;19.446;2024-01-25T11:19:59;99210.86;;;5.35;100.00
70971;BME280;58632;51.718;19.446;2024-01-25T11:22:34;99214.04;;;5.34;100.00
70971;BME280;58632;51.718;19.446;2024-01-25T11:24:59;99213.37;;;5.37;100.00
70971;BME280;58632;51.718;19.446;2024-01-25T11:27:24;99215.55;;;5.37;100.00
70971;BME280;58632;51.718;19.446;2024-01-25T11:29:50;99214.55;;;5.35;100.00
70971;BME280;58632;51.718;19.446;2024-01-25T11:32:15;99214.46;;;5.35;100.00
70971;BME280;58632;51.718;19.446;2024-01-25T11:34:41;99216.58;;;5.37;100.00
70971;BME280;58632;51.718;19.446;2024-01-25T11:37:06;99217.57;;;5.42;100.00
70971;BME280;58632;51.718;19.446;2024-01-25T11:39:32;99221.26;;;5.45;100.00
70971;BME280;58632;51.718;19.446;2024-01-25T11:41:58;99221.73;;;5.46;100.00
70971;BME280;58632;51.718;19.446;2024-01-25T11:44:23;99221.06;;;5.44;100.00
70971;BME280;58632;51.718;19.446;2024-01-25T11:46:49;99221.40;;;5.46;100.00
70971;BME280;58632;51.718;19.446;2024-01-25T11:49:15;99229.52;;;5.48;100.00
70971;BME280;58632;51.718;19.446;2024-01-25T11:51:40;99228.31;;;5.47;100.00
70971;BME280;58632;51.718;19.446;2024-01-25T11:54:07;99230.54;;;5.45;100.00
70971;BME280;58632;51.718;19.446;2024-01-25T11:56:33;99238.27;;;5.47;100.00
70971;BME280;58632;51.718;19.446;2024-01-25T11:58:59;99238.71;;;5.49;100.00
70971;BME280;58632;51.718;19.446;2024-01-25T12:01:25;99241.80;;;5.50;100.00
70971;BME280;58632;51.718;19.446;2024-01-25T12:03:51;99251.08;;;5.51;100.00
70971;BME280;58632;51.718;19.446;2024-01-25T12:06:16;99245.34;;;5.52;100.00
70971;BME280;58632;51.718;19.446;2024-01-25T12:08:42;99257.87;;;5.50;100.00
70971;BME280;58632;51.718;19.446;2024-01-25T12:11:08;99252.35;;;5.43;100.00
70971;BME280;58632;51.718;19.446;2024-01-25T12:13:34;99252.06;;;5.38;100.00
70971;BME280;58632;51.718;19.446;2024-01-25T12:16:00;99258.27;;;5.38;100.00
70971;BME280;58632;51.718;19.446;2024-01-25T12:18:26;99261.80;;;5.39;100.00
70971;BME280;58632;51.718;19.446;2024-01-25T12:20:52;99259.75;;;5.40;100.00
70971;BME280;58632;51.718;19.446;2024-01-25T12:23:17;99268.11;;;5.37;100.00
70971;BME280;58632;51.718;19.446;2024-01-25T12:25:42;99276.30;;;5.32;100.00
70971;BME280;58632;51.718;19.446;2024-01-25T12:28:09;99280.15;;;5.29;100.00
70971;BME280;58632;51.718;19.446;2024-01-25T12:30:34;99284.30;;;5.27;100.00
70971;BME280;58632;51.718;19.446;2024-01-25T12:33:00;99293.52;;;5.25;100.00
70971;BME280;58632;51.718;19.446;2024-01-25T12:35:25;99294.00;;;5.23;100.00
70971;BME280;58632;51.718;19.446;2024-01-25T12:37:51;99292.83;;;5.24;100.00
70971;BME280;58632;51.718;19.446;2024-01-25T12:40:18;99296.94;;;5.23;100.00
70971;BME280;58632;51.718;19.446;2024-01-25T12:42:44;99295.91;;;5.21;100.00